createdAt,value
2022-09-05T00:00:19.846Z,13.93
2022-09-05T00:03:03.887Z,13.99
2022-09-05T00:06:10.209Z,14.09
2022-09-05T00:08:53.730Z,14.15
2022-09-05T00:11:41.393Z,14.42
2022-09-05T00:15:17.032Z,14.01
2022-09-05T00:22:05.017Z,14.07
2022-09-05T00:24:25.893Z,13.97
2022-09-05T00:24:50.302Z,13.81
2022-09-05T00:27:29.979Z,13.92
2022-09-05T00:31:52.024Z,13.93
2022-09-05T00:33:17.991Z,12.90
2022-09-05T00:36:21.412Z,13.90
2022-09-05T00:38:58.694Z,13.94
2022-09-05T00:41:29.609Z,13.93
2022-09-05T00:44:04.421Z,13.94
2022-09-05T00:46:36.811Z,13.89
2022-09-05T00:49:21.011Z,13.86
2022-09-05T00:51:56.005Z,13.73
2022-09-05T00:54:55.119Z,13.73
2022-09-05T00:57:49.316Z,13.60
2022-09-05T01:00:20.265Z,13.55
2022-09-05T01:03:30.926Z,13.66
2022-09-05T01:06:18.855Z,13.35
2022-09-05T01:09:22.259Z,13.42
2022-09-05T01:12:05.829Z,13.50
2022-09-05T01:14:57.982Z,13.53
2022-09-05T01:17:37.017Z,13.24
2022-09-05T01:20:20.103Z,13.51
2022-09-05T01:23:41.755Z,13.23
2022-09-05T01:26:42.337Z,13.06
2022-09-05T01:29:23.451Z,13.06
2022-09-05T01:32:25.164Z,12.95
2022-09-05T01:35:25.772Z,13.04
2022-09-05T01:38:05.575Z,12.92
2022-09-05T01:40:53.667Z,12.94
2022-09-05T01:43:59.859Z,13.03
2022-09-05T01:46:41.139Z,12.69
2022-09-05T01:49:25.020Z,12.92
2022-09-05T01:52:26.179Z,12.89
2022-09-05T01:55:16.659Z,12.76
2022-09-05T01:57:51.715Z,12.46
2022-09-05T02:00:25.559Z,12.73
2022-09-05T02:03:10.128Z,12.86
2022-09-05T02:06:29.614Z,12.79
2022-09-05T02:09:19.881Z,12.71
2022-09-05T02:11:58.162Z,12.71
2022-09-05T02:14:40.230Z,12.64
2022-09-05T02:17:23.449Z,12.60
2022-09-05T02:20:23.791Z,12.55
2022-09-05T02:23:02.612Z,12.47
2022-09-05T02:26:02.651Z,12.51
2022-09-05T02:28:39.908Z,12.52
2022-09-05T02:31:19.808Z,12.59
2022-09-05T02:34:02.416Z,12.47
2022-09-05T02:36:41.886Z,12.44
2022-09-05T02:45:03.086Z,12.59
2022-09-05T02:45:19.111Z,12.42
2022-09-05T02:45:34.011Z,12.25
2022-09-05T02:48:15.759Z,12.18
2022-09-05T02:55:41.450Z,12.01
2022-09-05T02:57:32.960Z,11.99
2022-09-05T02:57:35.087Z,12.03
2022-09-05T03:00:07.931Z,12.06
2022-09-05T03:02:59.960Z,12.11
2022-09-05T03:05:33.796Z,12.09
2022-09-05T03:08:22.624Z,12.15
2022-09-05T03:11:23.022Z,12.25
2022-09-05T03:14:39.856Z,12.29
2022-09-05T03:17:53.414Z,12.27
2022-09-05T03:21:09.487Z,12.24
2022-09-05T03:24:36.801Z,12.15
2022-09-05T03:27:55.272Z,12.16
2022-09-05T03:30:24.960Z,12.23
2022-09-05T03:33:43.531Z,12.24
2022-09-05T03:36:52.099Z,12.09
2022-09-05T03:39:53.749Z,12.07
2022-09-05T03:42:53.602Z,12.02
2022-09-05T03:46:04.110Z,11.94
2022-09-05T03:49:24.499Z,10.81
2022-09-05T03:57:07.107Z,11.70
2022-09-05T03:57:15.961Z,11.69
2022-09-05T03:58:55.992Z,11.73
2022-09-05T04:08:16.374Z,11.43
2022-09-05T04:08:31.880Z,11.46
2022-09-05T04:10:35.238Z,11.47
2022-09-05T04:13:10.618Z,11.41
2022-09-05T04:15:44.870Z,11.49
2022-09-05T04:18:33.247Z,11.18
2022-09-05T04:21:11.585Z,11.54
2022-09-05T04:23:58.718Z,11.44
2022-09-05T04:26:56.573Z,11.41
2022-09-05T04:29:36.339Z,11.44
2022-09-05T04:32:25.024Z,11.43
2022-09-05T04:35:23.470Z,11.49
2022-09-05T04:37:59.438Z,11.46
2022-09-05T04:40:49.796Z,11.57
2022-09-05T04:43:31.107Z,11.52
2022-09-05T04:46:18.882Z,11.51
2022-09-05T04:48:59.529Z,11.12
2022-09-05T04:52:04.205Z,11.33
2022-09-05T04:54:38.696Z,11.44
2022-09-05T04:57:24.373Z,11.41
2022-09-05T05:04:30.859Z,11.42
2022-09-05T05:06:12.917Z,11.45
2022-09-05T05:06:30.127Z,11.48
2022-09-05T05:08:52.532Z,11.62
2022-09-05T05:17:54.056Z,11.72
2022-09-05T05:17:58.203Z,11.52
2022-09-05T05:18:07.041Z,11.87
2022-09-05T05:20:41.802Z,11.87
2022-09-05T05:23:16.675Z,11.89
2022-09-05T05:25:51.924Z,12.02
2022-09-05T05:28:29.061Z,12.06
2022-09-05T05:31:01.561Z,11.99
2022-09-05T05:33:35.504Z,12.02
2022-09-05T05:36:08.717Z,12.20
2022-09-05T05:38:45.900Z,12.18
2022-09-05T05:41:25.697Z,12.33
2022-09-05T05:43:54.092Z,12.43
2022-09-05T05:46:32.345Z,12.37
2022-09-05T05:49:46.077Z,12.69
2022-09-05T05:52:51.334Z,12.92
2022-09-05T05:55:51.357Z,13.22
2022-09-05T05:58:54.042Z,13.37
2022-09-05T06:02:10.807Z,13.32
2022-09-05T06:05:17.414Z,13.63
2022-09-05T06:10:47.545Z,13.77
2022-09-05T06:15:02.369Z,13.20
2022-09-05T06:15:26.708Z,13.95
2022-09-05T06:18:24.207Z,14.19
2022-09-05T06:22:09.041Z,14.39
2022-09-05T06:25:22.009Z,14.46
2022-09-05T06:28:18.934Z,14.62
2022-09-05T06:31:30.134Z,14.31
2022-09-05T06:34:32.523Z,14.91
2022-09-05T06:37:13.173Z,15.13
2022-09-05T06:40:09.555Z,15.33
2022-09-05T06:43:02.401Z,15.46
2022-09-05T06:46:06.652Z,15.66
2022-09-05T06:49:33.458Z,15.96
2022-09-05T06:52:27.979Z,15.98
2022-09-05T06:55:42.165Z,16.39
2022-09-05T06:59:12.136Z,16.72
2022-09-05T07:02:01.079Z,16.94
2022-09-05T07:05:37.674Z,16.67
2022-09-05T07:07:37.060Z,17.49
2022-09-05T07:10:36.951Z,17.67
2022-09-05T07:13:14.759Z,17.91
2022-09-05T07:15:56.259Z,18.27
2022-09-05T07:18:34.638Z,18.18
2022-09-05T07:21:17.061Z,18.33
2022-09-05T07:24:07.193Z,18.51
2022-09-05T07:26:53.721Z,18.62
2022-09-05T07:29:30.465Z,18.90
2022-09-05T07:32:02.525Z,19.10
2022-09-05T07:34:34.804Z,19.24
2022-09-05T07:37:15.368Z,19.40
2022-09-05T07:39:52.804Z,19.60
2022-09-05T07:42:27.360Z,19.69
2022-09-05T07:44:59.345Z,19.86
2022-09-05T07:47:31.522Z,19.92
2022-09-05T07:50:42.883Z,20.08
2022-09-05T07:56:55.698Z,20.32
2022-09-05T07:56:58.898Z,20.41
2022-09-05T07:58:50.417Z,20.50
2022-09-05T08:01:22.492Z,20.61
2022-09-05T08:04:29.508Z,20.73
2022-09-05T08:07:48.049Z,21.01
2022-09-05T08:10:09.268Z,21.10
2022-09-05T08:13:22.318Z,21.29
2022-09-05T08:15:51.031Z,21.28
2022-09-05T08:18:35.288Z,21.90
2022-09-05T08:21:11.139Z,21.77
2022-09-05T08:23:58.339Z,21.86
2022-09-05T08:26:45.222Z,22.07
2022-09-05T08:29:28.294Z,22.27
2022-09-05T08:32:08.419Z,22.50
2022-09-05T08:34:45.587Z,22.54
2022-09-05T08:37:21.199Z,22.59
2022-09-05T08:40:07.227Z,22.80
2022-09-05T08:44:17.584Z,22.93
2022-09-05T08:46:40.997Z,23.12
2022-09-05T08:48:55.772Z,23.16
2022-09-05T08:51:44.752Z,23.26
2022-09-05T08:54:32.605Z,23.37
2022-09-05T08:57:14.037Z,23.56
2022-09-05T09:00:18.904Z,23.24
2022-09-05T09:02:57.266Z,23.74
2022-09-05T09:06:16.436Z,24.00
2022-09-05T09:09:06.044Z,23.94
2022-09-05T09:11:39.135Z,23.79
2022-09-05T09:14:38.670Z,24.12
2022-09-05T09:17:22.965Z,24.37
2022-09-05T09:20:20.063Z,24.24
2022-09-05T09:22:59.230Z,24.57
2022-09-05T09:25:34.082Z,24.67
2022-09-05T09:28:47.949Z,24.48
2022-09-05T09:31:38.124Z,24.94
2022-09-05T09:34:47.224Z,25.05
2022-09-05T09:37:59.525Z,25.14
2022-09-05T09:41:22.656Z,25.16
2022-09-05T09:45:22.706Z,25.08
2022-09-05T09:48:43.521Z,25.18
2022-09-05T09:51:49.404Z,25.36
2022-09-05T09:55:07.933Z,25.42
2022-09-05T09:58:36.966Z,25.67
2022-09-05T10:01:36.438Z,25.78
2022-09-05T10:10:33.314Z,25.81
2022-09-05T10:10:49.590Z,26.09
2022-09-05T10:11:51.987Z,26.07
2022-09-05T10:15:30.251Z,26.34
2022-09-05T10:18:31.572Z,26.40
2022-09-05T10:21:24.550Z,26.43
2022-09-05T10:24:35.452Z,26.53
2022-09-05T10:27:32.613Z,26.49
2022-09-05T10:30:10.380Z,26.64
2022-09-05T10:35:04.574Z,26.60
2022-09-05T10:35:37.211Z,26.51
2022-09-05T10:38:12.806Z,26.72
2022-09-05T10:41:20.283Z,27.50
2022-09-05T10:43:38.830Z,27.09
2022-09-05T10:46:50.857Z,27.14
2022-09-05T10:49:16.603Z,27.34
2022-09-05T10:51:53.176Z,27.12
2022-09-05T10:54:38.364Z,26.89
2022-09-05T10:57:22.989Z,26.61
2022-09-05T11:02:19.845Z,26.56
2022-09-05T11:03:01.485Z,26.54
2022-09-05T11:05:35.194Z,26.35
2022-09-05T11:08:11.157Z,26.13
2022-09-05T11:10:50.158Z,26.10
2022-09-05T11:13:37.808Z,26.06
2022-09-05T11:16:19.400Z,26.09
2022-09-05T11:18:58.879Z,26.08
2022-09-05T11:21:47.066Z,25.96
2022-09-05T11:24:31.527Z,25.83
2022-09-05T11:27:24.451Z,25.87
2022-09-05T11:29:59.336Z,25.63
2022-09-05T11:36:54.644Z,25.52
2022-09-05T11:39:57.201Z,25.61
2022-09-05T11:40:06.900Z,25.75
2022-09-05T11:42:46.024Z,26.21
2022-09-05T11:45:44.095Z,26.75
2022-09-05T11:48:36.946Z,26.96
2022-09-05T11:52:02.678Z,27.27
2022-09-05T11:55:20.596Z,27.37
2022-09-05T11:58:29.696Z,27.28
2022-09-05T12:01:41.199Z,27.16
2022-09-05T12:04:33.148Z,26.89
2022-09-05T12:10:45.715Z,26.61
2022-09-05T12:13:47.044Z,26.36
2022-09-05T12:16:44.113Z,26.25
2022-09-05T12:19:27.877Z,26.25
2022-09-05T12:22:29.451Z,26.35
2022-09-05T12:25:25.537Z,26.25
2022-09-05T12:28:54.608Z,26.32
2022-09-05T12:32:19.625Z,26.27
2022-09-05T12:40:52.014Z,26.08
2022-09-05T12:41:36.422Z,26.05
2022-09-05T12:41:42.271Z,26.20
2022-09-05T12:42:10.985Z,26.78
2022-09-05T12:44:38.261Z,26.01
2022-09-05T12:45:58.627Z,25.91
2022-09-05T12:48:39.137Z,25.99
2022-09-05T12:51:11.192Z,25.87
2022-09-05T12:53:48.326Z,26.30
2022-09-05T12:58:07.452Z,26.90
2022-09-05T13:02:58.520Z,26.94
2022-09-05T13:03:02.984Z,26.87
2022-09-05T13:05:15.209Z,27.22
2022-09-05T13:07:48.889Z,27.63
2022-09-05T13:14:50.515Z,27.91
2022-09-05T13:14:53.194Z,27.86
2022-09-05T13:16:09.290Z,28.62
2022-09-05T13:19:02.318Z,28.83
2022-09-05T13:21:32.395Z,28.83
2022-09-05T13:24:12.185Z,29.01
2022-09-05T13:26:50.153Z,28.83
2022-09-05T13:29:22.960Z,29.07
2022-09-05T13:38:16.166Z,29.08
2022-09-05T13:38:20.680Z,28.98
2022-09-05T13:38:35.837Z,29.16
2022-09-05T13:41:00.395Z,29.61
2022-09-05T13:43:36.457Z,29.97
2022-09-05T13:46:17.261Z,30.40
2022-09-05T13:51:46.530Z,30.50
2022-09-05T13:54:48.775Z,30.65
2022-09-05T13:57:36.049Z,30.74
2022-09-05T14:01:14.316Z,30.85
2022-09-05T14:05:06.545Z,30.74
2022-09-05T14:08:32.461Z,30.36
2022-09-05T14:11:47.765Z,30.68
2022-09-05T14:17:51.164Z,30.93
2022-09-05T14:20:38.582Z,30.95
2022-09-05T14:23:15.477Z,31.03
2022-09-05T14:25:49.931Z,30.97
2022-09-05T14:28:33.368Z,30.63
2022-09-05T14:33:36.911Z,30.25
2022-09-05T14:37:40.251Z,30.20
2022-09-05T14:37:44.166Z,30.59
2022-09-05T14:40:55.437Z,31.07
2022-09-05T14:44:27.597Z,31.26
2022-09-05T14:47:36.455Z,31.06
2022-09-05T14:50:38.761Z,30.52
2022-09-05T14:57:23.652Z,29.75
2022-09-05T15:02:48.568Z,29.91
2022-09-05T15:02:53.101Z,29.91
2022-09-05T15:05:22.832Z,29.50
2022-09-05T15:08:02.121Z,29.31
2022-09-05T15:12:16.354Z,28.87
2022-09-05T15:13:27.631Z,28.68
2022-09-05T15:16:06.957Z,28.47
2022-09-05T15:18:40.382Z,28.38
2022-09-05T15:21:33.625Z,28.40
2022-09-05T15:24:17.144Z,28.44
2022-09-05T15:26:53.108Z,28.23
2022-09-05T15:29:26.916Z,28.20
2022-09-05T15:32:13.946Z,28.09
2022-09-05T15:34:42.206Z,28.33
2022-09-05T15:37:26.970Z,28.69
2022-09-05T15:40:23.252Z,28.66
2022-09-05T15:42:55.693Z,28.85
2022-09-05T15:45:29.044Z,29.00
2022-09-05T15:48:22.421Z,29.07
2022-09-05T15:50:54.000Z,29.22
2022-09-05T15:53:29.029Z,29.25
2022-09-05T15:56:16.581Z,29.44
2022-09-05T15:58:53.950Z,28.76
2022-09-05T16:01:58.143Z,29.26
2022-09-05T16:09:45.173Z,29.42
2022-09-05T16:10:38.137Z,29.24
2022-09-05T16:10:41.145Z,29.64
2022-09-05T16:13:13.768Z,29.30
2022-09-05T16:22:19.388Z,28.94
2022-09-05T16:23:15.225Z,28.28
2022-09-05T16:23:25.483Z,28.55
2022-09-05T16:24:45.058Z,28.30
2022-09-05T16:27:43.982Z,27.92
2022-09-05T16:30:21.246Z,27.97
2022-09-05T16:32:53.467Z,27.73
2022-09-05T16:35:25.165Z,27.77
2022-09-05T16:38:10.608Z,27.64
2022-09-05T16:40:50.012Z,27.45
2022-09-05T16:43:22.171Z,27.49
2022-09-05T16:45:56.935Z,27.61
2022-09-05T16:48:39.011Z,27.60
2022-09-05T16:51:34.760Z,27.53
2022-09-05T16:54:13.711Z,27.59
2022-09-05T16:56:46.469Z,27.50
2022-09-05T16:59:19.194Z,27.48
2022-09-05T17:02:10.035Z,27.31
2022-09-05T17:05:05.102Z,27.37
2022-09-05T17:08:12.300Z,27.14
2022-09-05T17:10:49.326Z,27.05
2022-09-05T17:13:43.100Z,26.95
2022-09-05T17:16:15.875Z,26.22
2022-09-05T17:18:46.697Z,26.72
2022-09-05T17:21:35.240Z,26.55
2022-09-05T17:29:21.209Z,26.43
2022-09-05T17:29:25.037Z,26.21
2022-09-05T17:32:59.508Z,25.94
2022-09-05T17:35:42.254Z,25.84
2022-09-05T17:38:37.562Z,25.55
2022-09-05T17:41:57.920Z,25.45
2022-09-05T17:44:32.744Z,25.24
2022-09-05T17:47:14.628Z,25.15
2022-09-05T17:49:47.235Z,24.90
2022-09-05T17:52:23.762Z,24.79
2022-09-05T17:54:55.604Z,23.84
2022-09-05T17:57:44.425Z,23.91
2022-09-05T18:01:08.245Z,24.24
2022-09-05T18:04:17.024Z,24.07
2022-09-05T18:06:59.868Z,23.96
2022-09-05T18:10:11.850Z,23.80
2022-09-05T18:13:14.015Z,23.79
2022-09-05T18:16:12.789Z,23.37
2022-09-05T18:19:32.743Z,23.43
2022-09-05T18:21:51.993Z,23.29
2022-09-05T18:24:35.243Z,23.30
2022-09-05T18:27:35.106Z,22.84
2022-09-05T18:30:27.511Z,22.70
2022-09-05T18:33:55.298Z,22.70
2022-09-05T18:36:34.833Z,22.70
2022-09-05T18:39:43.529Z,22.44
2022-09-05T18:42:33.650Z,22.51
2022-09-05T18:45:15.279Z,22.45
2022-09-05T18:47:58.019Z,22.11
2022-09-05T18:50:32.501Z,22.16
2022-09-05T18:53:08.927Z,22.09
2022-09-05T18:56:12.706Z,21.90
2022-09-05T18:58:35.330Z,21.92
2022-09-05T19:01:25.811Z,22.18
2022-09-05T19:04:02.205Z,21.98
2022-09-05T19:06:36.985Z,21.68
2022-09-05T19:09:09.807Z,21.76
2022-09-05T19:11:53.337Z,21.33
2022-09-05T19:14:38.638Z,21.17
2022-09-05T19:17:17.525Z,21.76
2022-09-05T19:20:32.594Z,22.04
2022-09-05T19:23:12.040Z,21.86
2022-09-05T19:25:44.533Z,21.71
2022-09-05T19:35:25.730Z,21.56
2022-09-05T19:36:49.847Z,21.46
2022-09-05T19:37:04.611Z,21.51
2022-09-05T19:37:26.229Z,21.41
2022-09-05T19:43:40.385Z,21.48
2022-09-05T19:47:34.813Z,21.39
2022-09-05T19:47:50.277Z,21.45
2022-09-05T19:48:26.310Z,21.52
2022-09-05T19:50:58.489Z,21.38
2022-09-05T19:53:26.923Z,21.38
2022-09-05T19:55:55.408Z,21.32
2022-09-05T19:58:24.961Z,21.19
2022-09-05T20:01:04.514Z,21.22
2022-09-05T20:03:38.402Z,21.29
2022-09-05T20:06:33.774Z,21.20
2022-09-05T20:09:16.575Z,21.19
2022-09-05T20:11:49.463Z,20.58
2022-09-05T20:14:25.461Z,21.21
2022-09-05T20:16:57.421Z,21.11
2022-09-05T20:19:30.937Z,21.14
2022-09-05T20:22:31.792Z,21.00
2022-09-05T20:24:54.299Z,20.76
2022-09-05T20:27:28.175Z,20.81
2022-09-05T20:30:00.091Z,20.72
2022-09-05T20:32:39.621Z,20.80
2022-09-05T20:40:22.641Z,20.56
2022-09-05T20:43:16.109Z,20.62
2022-09-05T20:43:18.927Z,20.46
2022-09-05T20:43:58.033Z,20.33
2022-09-05T20:50:44.427Z,20.23
2022-09-05T20:54:05.523Z,20.11
2022-09-05T20:54:12.794Z,20.19
2022-09-05T20:55:38.789Z,20.03
2022-09-05T20:58:11.969Z,20.04
2022-09-05T21:01:19.876Z,19.94
2022-09-05T21:03:39.967Z,19.69
2022-09-05T21:06:23.513Z,19.67
2022-09-05T21:08:55.799Z,19.38
2022-09-05T21:11:33.761Z,19.30
2022-09-05T21:14:05.902Z,19.17
2022-09-05T21:16:43.472Z,19.21
2022-09-05T21:19:25.138Z,19.16
2022-09-05T21:22:05.269Z,19.13
2022-09-05T21:24:33.964Z,18.98
2022-09-05T21:27:18.869Z,19.02
2022-09-05T21:29:53.016Z,19.21
2022-09-05T21:32:37.961Z,18.92
2022-09-05T21:35:16.047Z,18.80
2022-09-05T21:38:01.539Z,19.02
2022-09-05T21:40:29.885Z,18.92
2022-09-05T21:47:33.747Z,18.99
2022-09-05T21:47:47.589Z,18.89
2022-09-05T21:48:37.803Z,18.90
2022-09-05T21:51:09.731Z,18.73
2022-09-05T21:57:00.418Z,18.64
2022-09-05T21:59:21.754Z,18.63
2022-09-05T21:59:46.546Z,18.42
2022-09-05T22:02:16.551Z,18.35
2022-09-05T22:05:02.782Z,18.15
2022-09-05T22:07:35.685Z,17.93
2022-09-05T22:10:06.595Z,18.17
2022-09-05T22:12:38.507Z,18.22
2022-09-05T22:15:27.193Z,18.09
2022-09-05T22:18:17.823Z,18.05
2022-09-05T22:21:02.614Z,18.03
2022-09-05T22:23:44.254Z,17.72
2022-09-05T22:26:13.313Z,17.64
2022-09-05T22:28:48.876Z,17.61
2022-09-05T22:31:19.847Z,17.55
2022-09-05T22:33:51.197Z,17.34
2022-09-05T22:36:19.799Z,17.29
2022-09-05T22:38:48.060Z,17.25
2022-09-05T22:41:16.272Z,17.42
2022-09-05T22:43:46.366Z,17.40
2022-09-05T22:46:14.678Z,17.36
2022-09-05T22:48:44.319Z,17.24
2022-09-05T22:51:12.624Z,17.20
2022-09-05T22:53:40.852Z,17.23
2022-09-05T22:56:09.833Z,17.35
2022-09-05T22:58:39.960Z,17.29
2022-09-05T23:01:09.296Z,17.21
2022-09-05T23:03:37.658Z,17.24
2022-09-05T23:06:10.233Z,17.07
2022-09-05T23:08:38.482Z,17.01
2022-09-05T23:11:08.272Z,16.89
2022-09-05T23:13:36.613Z,16.86
2022-09-05T23:16:05.367Z,16.70
2022-09-05T23:18:34.311Z,16.77
2022-09-05T23:21:03.263Z,16.60
2022-09-05T23:23:32.841Z,16.79
2022-09-05T23:26:01.709Z,16.63
2022-09-05T23:28:30.172Z,16.90
2022-09-05T23:31:01.080Z,16.74
2022-09-05T23:33:29.621Z,16.84
2022-09-05T23:36:01.007Z,16.73
2022-09-05T23:38:29.621Z,16.75
2022-09-05T23:41:05.529Z,16.76
2022-09-05T23:43:34.232Z,16.63
2022-09-05T23:46:02.807Z,16.48
2022-09-05T23:48:31.730Z,16.50
2022-09-05T23:51:06.902Z,16.46
2022-09-05T23:53:35.715Z,16.00
2022-09-05T23:56:08.274Z,16.20
2022-09-05T23:58:38.614Z,16.78
